createdAt,value
2018-12-01T00:00:45.937Z,4.67
2018-12-01T00:03:12.497Z,4.72
2018-12-01T00:05:39.003Z,5.60
2018-12-01T00:08:05.581Z,3.92
2018-12-01T00:10:32.081Z,4.20
2018-12-01T00:12:58.631Z,6.00
2018-12-01T00:15:27.140Z,4.25
2018-12-01T00:17:53.989Z,4.03
2018-12-01T00:20:21.893Z,3.98
2018-12-01T00:22:48.359Z,4.85
2018-12-01T00:25:14.894Z,4.20
2018-12-01T00:27:41.392Z,3.92
2018-12-01T00:30:11.905Z,4.17
2018-12-01T00:32:38.509Z,3.47
2018-12-01T00:35:06.181Z,4.53
2018-12-01T00:37:32.653Z,4.28
2018-12-01T00:39:59.124Z,4.50
2018-12-01T00:42:25.626Z,3.83
2018-12-01T00:44:52.294Z,4.30
2018-12-01T00:47:18.701Z,3.85
2018-12-01T00:49:45.249Z,4.17
2018-12-01T00:52:11.770Z,4.85
2018-12-01T00:54:38.321Z,4.17
2018-12-01T00:57:04.848Z,4.55
2018-12-01T00:59:31.397Z,4.58
2018-12-01T01:01:57.909Z,4.15
2018-12-01T01:04:24.477Z,4.75
2018-12-01T01:06:51.000Z,3.72
2018-12-01T01:09:17.524Z,3.80
2018-12-01T01:11:44.053Z,3.42
2018-12-01T01:14:10.609Z,4.12
2018-12-01T01:16:37.133Z,4.28
2018-12-01T01:19:03.816Z,3.72
2018-12-01T01:21:30.289Z,4.87
2018-12-01T01:23:56.821Z,3.62
2018-12-01T01:26:23.380Z,4.58
2018-12-01T01:28:49.885Z,3.72
2018-12-01T01:31:16.369Z,3.58
2018-12-01T01:33:42.864Z,4.97
2018-12-01T01:36:09.433Z,3.72
2018-12-01T01:38:35.935Z,5.70
2018-12-01T01:41:02.498Z,3.17
2018-12-01T01:43:29.021Z,4.03
2018-12-01T01:45:55.561Z,3.67
2018-12-01T01:48:22.085Z,4.28
2018-12-01T01:50:48.634Z,3.58
2018-12-01T01:53:15.137Z,3.77
2018-12-01T01:55:41.602Z,4.40
2018-12-01T01:58:08.117Z,4.00
2018-12-01T02:00:34.685Z,6.25
2018-12-01T02:03:01.181Z,3.27
2018-12-01T02:05:27.733Z,3.50
2018-12-01T02:07:54.251Z,3.95
2018-12-01T02:10:20.857Z,3.83
2018-12-01T02:12:47.320Z,3.52
2018-12-01T02:15:13.788Z,4.55
2018-12-01T02:17:40.321Z,3.27
2018-12-01T02:20:10.873Z,4.03
2018-12-01T02:22:37.387Z,3.52
2018-12-01T02:25:04.757Z,2.98
2018-12-01T02:27:31.273Z,3.92
2018-12-01T02:29:57.774Z,3.30
2018-12-01T02:32:24.235Z,3.30
2018-12-01T02:34:50.733Z,3.35
2018-12-01T02:37:17.197Z,4.03
2018-12-01T02:39:43.714Z,3.47
2018-12-01T02:42:10.261Z,3.92
2018-12-01T02:45:03.421Z,4.90
2018-12-01T02:47:29.972Z,3.55
2018-12-01T02:49:56.477Z,3.08
2018-12-01T02:52:23.012Z,3.10
2018-12-01T02:54:49.817Z,3.15
2018-12-01T02:57:16.277Z,3.65
2018-12-01T02:59:42.737Z,3.58
2018-12-01T03:02:09.249Z,2.98
2018-12-01T03:04:35.717Z,3.37
2018-12-01T03:07:02.253Z,3.60
2018-12-01T03:09:28.769Z,4.62
2018-12-01T03:11:55.293Z,3.75
2018-12-01T03:14:21.841Z,2.90
2018-12-01T03:16:48.357Z,3.62
2018-12-01T03:19:14.821Z,3.17
2018-12-01T03:21:41.317Z,3.22
2018-12-01T03:24:07.788Z,3.22
2018-12-01T03:26:34.294Z,2.85
2018-12-01T03:29:00.774Z,3.80
2018-12-01T03:31:27.257Z,3.05
2018-12-01T03:33:53.799Z,3.10
2018-12-01T03:36:20.345Z,3.55
2018-12-01T03:38:46.897Z,4.50
2018-12-01T03:41:13.437Z,3.67
2018-12-01T03:43:39.933Z,3.90
2018-12-01T03:46:06.400Z,3.83
2018-12-01T03:48:32.901Z,3.33
2018-12-01T03:50:59.365Z,4.15
2018-12-01T03:53:25.877Z,3.70
2018-12-01T03:55:52.417Z,3.72
2018-12-01T03:58:18.940Z,3.20
2018-12-01T04:00:45.404Z,3.67
2018-12-01T04:03:11.909Z,3.33
2018-12-01T04:05:38.365Z,3.80
2018-12-01T04:08:04.892Z,2.90
2018-12-01T04:10:31.433Z,2.85
2018-12-01T04:12:57.961Z,3.47
2018-12-01T04:15:24.852Z,3.35
2018-12-01T04:17:51.353Z,3.08
2018-12-01T04:20:17.861Z,3.08
2018-12-01T04:22:44.448Z,2.45
2018-12-01T04:25:10.959Z,3.00
2018-12-01T04:27:37.509Z,3.00
2018-12-01T04:30:08.245Z,3.00
2018-12-01T04:32:34.748Z,3.65
2018-12-01T04:35:01.277Z,2.87
2018-12-01T04:37:27.819Z,2.77
2018-12-01T04:39:54.334Z,2.95
2018-12-01T04:42:20.793Z,5.10
2018-12-01T04:44:47.321Z,3.00
2018-12-01T04:47:13.844Z,3.15
2018-12-01T04:49:40.364Z,3.25
2018-12-01T04:52:06.944Z,3.20
2018-12-01T04:54:33.436Z,2.67
2018-12-01T04:56:59.965Z,4.87
2018-12-01T04:59:26.404Z,3.62
2018-12-01T05:01:52.940Z,2.95
2018-12-01T05:04:19.405Z,4.40
2018-12-01T05:06:45.916Z,3.15
2018-12-01T05:09:12.469Z,2.98
2018-12-01T05:11:38.993Z,2.85
2018-12-01T05:14:05.540Z,2.87
2018-12-01T05:16:32.053Z,2.95
2018-12-01T05:18:58.644Z,3.10
2018-12-01T05:21:25.122Z,3.75
2018-12-01T05:23:51.676Z,3.33
2018-12-01T05:26:18.189Z,2.70
2018-12-01T05:28:44.765Z,2.90
2018-12-01T05:31:11.253Z,3.37
2018-12-01T05:33:37.715Z,3.30
2018-12-01T05:36:04.245Z,3.02
2018-12-01T05:38:30.797Z,2.75
2018-12-01T05:40:57.293Z,2.67
2018-12-01T05:43:23.733Z,2.95
2018-12-01T05:45:50.293Z,3.30
2018-12-01T05:48:16.806Z,2.70
2018-12-01T05:50:43.353Z,2.62
2018-12-01T05:53:09.873Z,2.77
2018-12-01T06:02:22.037Z,2.72
2018-12-01T06:04:48.569Z,3.17
2018-12-01T06:07:15.084Z,3.02
2018-12-01T06:09:42.468Z,3.00
2018-12-01T06:12:08.972Z,2.87
2018-12-01T06:14:35.409Z,2.60
2018-12-01T06:17:01.969Z,3.10
2018-12-01T06:19:28.475Z,3.22
2018-12-01T06:21:54.945Z,2.52
2018-12-01T06:24:21.440Z,2.55
2018-12-01T06:26:47.901Z,2.40
2018-12-01T06:29:14.413Z,3.02
2018-12-01T06:31:40.973Z,2.83
2018-12-01T06:34:07.481Z,2.70
2018-12-01T06:36:33.945Z,2.70
2018-12-01T06:39:00.441Z,2.95
2018-12-01T06:41:26.898Z,2.77
2018-12-01T06:43:53.417Z,3.00
2018-12-01T06:46:19.976Z,2.58
2018-12-01T06:48:46.477Z,3.27
2018-12-01T06:51:12.961Z,2.92
2018-12-01T06:53:39.452Z,2.80
2018-12-01T06:56:05.889Z,2.62
2018-12-01T06:58:32.432Z,3.27
2018-12-01T07:00:58.984Z,2.95
2018-12-01T07:03:25.509Z,2.98
2018-12-01T07:05:52.020Z,2.52
2018-12-01T07:08:18.501Z,2.62
2018-12-01T07:10:44.993Z,3.40
2018-12-01T07:13:11.693Z,2.52
2018-12-01T07:15:38.927Z,2.52
2018-12-01T07:18:17.029Z,4.08
2018-12-01T07:20:43.525Z,2.30
2018-12-01T07:23:10.077Z,2.67
2018-12-01T07:25:36.589Z,2.90
2018-12-01T07:28:03.089Z,2.98
2018-12-01T07:30:29.553Z,3.20
2018-12-01T07:32:56.025Z,2.83
2018-12-01T07:35:22.525Z,3.02
2018-12-01T07:37:49.009Z,2.62
2018-12-01T07:40:16.461Z,2.83
2018-12-01T07:42:42.993Z,3.12
2018-12-01T07:45:10.781Z,4.78
2018-12-01T07:47:37.253Z,3.20
2018-12-01T07:50:06.713Z,3.40
2018-12-01T07:52:33.180Z,5.28
2018-12-01T07:54:59.641Z,5.53
2018-12-01T07:57:26.157Z,4.75
2018-12-01T07:59:52.600Z,3.15
2018-12-01T08:02:19.127Z,3.92
2018-12-01T08:04:45.668Z,4.28
2018-12-01T08:07:12.184Z,4.22
2018-12-01T08:09:38.681Z,3.72
2018-12-01T08:12:05.189Z,4.33
2018-12-01T08:14:31.741Z,3.92
2018-12-01T08:16:58.228Z,3.60
2018-12-01T08:19:24.698Z,4.28
2018-12-01T08:21:51.214Z,4.83
2018-12-01T08:24:17.737Z,4.55
2018-12-01T08:26:44.288Z,4.60
2018-12-01T08:29:10.796Z,4.87
2018-12-01T08:31:37.265Z,4.67
2018-12-01T08:34:03.917Z,5.25
2018-12-01T08:36:30.425Z,4.35
2018-12-01T08:38:56.958Z,4.45
2018-12-01T08:41:23.505Z,5.33
2018-12-01T08:43:50.009Z,4.78
2018-12-01T08:46:16.476Z,7.47
2018-12-01T08:48:42.977Z,5.00
2018-12-01T08:51:09.441Z,4.47
2018-12-01T08:53:35.941Z,4.83
2018-12-01T08:56:02.454Z,4.60
2018-12-01T08:58:28.950Z,4.60
2018-12-01T09:00:55.492Z,6.15
2018-12-01T09:03:21.826Z,3.95
2018-12-01T09:05:48.345Z,5.28
2018-12-01T09:08:14.861Z,4.62
2018-12-01T09:10:41.414Z,5.53
2018-12-01T09:13:07.951Z,3.87
2018-12-01T09:15:36.854Z,5.35
2018-12-01T09:18:01.112Z,4.60
2018-12-01T09:20:27.629Z,3.95
2018-12-01T09:22:54.089Z,4.72
2018-12-01T09:26:24.144Z,3.83
2018-12-01T09:28:50.629Z,3.58
2018-12-01T09:31:17.153Z,3.75
2018-12-01T09:33:43.625Z,4.78
2018-12-01T09:36:10.129Z,4.65
2018-12-01T09:38:36.681Z,4.50
2018-12-01T09:41:03.221Z,3.67
2018-12-01T09:43:29.741Z,4.22
2018-12-01T09:45:56.261Z,3.92
2018-12-01T09:48:22.721Z,4.12
2018-12-01T09:50:49.225Z,5.30
2018-12-01T09:53:15.785Z,4.30
2018-12-01T09:55:42.301Z,4.70
2018-12-01T09:58:08.756Z,3.75
2018-12-01T10:00:35.303Z,5.35
2018-12-01T10:03:03.590Z,3.58
2018-12-01T10:05:30.689Z,4.30
2018-12-01T10:07:57.157Z,4.17
2018-12-01T10:10:23.701Z,5.58
2018-12-01T10:12:54.805Z,4.72
2018-12-01T10:15:23.818Z,3.95
2018-12-01T10:17:49.193Z,4.90
2018-12-01T10:20:19.184Z,4.70
2018-12-01T10:22:45.685Z,4.72
2018-12-01T10:25:13.496Z,4.08
2018-12-01T10:27:39.969Z,5.10
2018-12-01T10:30:09.517Z,5.10
2018-12-01T10:32:35.993Z,5.78
2018-12-01T10:35:02.895Z,3.70
2018-12-01T10:37:29.369Z,4.17
2018-12-01T10:39:55.849Z,4.97
2018-12-01T10:42:22.344Z,5.72
2018-12-01T10:44:48.881Z,3.80
2018-12-01T10:47:15.405Z,4.45
2018-12-01T10:49:41.881Z,5.12
2018-12-01T10:52:08.369Z,5.45
2018-12-01T10:54:34.865Z,5.55
2018-12-01T10:57:01.352Z,4.53
2018-12-01T10:59:27.881Z,4.67
2018-12-01T11:01:54.429Z,3.98
2018-12-01T11:04:20.952Z,4.55
2018-12-01T11:06:47.517Z,4.42
2018-12-01T11:09:14.013Z,5.12
2018-12-01T11:11:40.489Z,4.47
2018-12-01T11:14:07.010Z,4.60
2018-12-01T11:16:33.569Z,4.65
2018-12-01T11:19:00.097Z,5.15
2018-12-01T11:21:26.624Z,4.00
2018-12-01T11:23:53.314Z,5.35
2018-12-01T11:26:19.782Z,4.75
2018-12-01T11:28:46.316Z,4.30
2018-12-01T11:31:12.865Z,5.08
2018-12-01T11:33:39.385Z,4.17
2018-12-01T11:36:05.925Z,5.72
2018-12-01T11:38:32.789Z,4.62
2018-12-01T11:40:59.321Z,3.87
2018-12-01T11:43:25.833Z,5.08
2018-12-01T11:45:52.395Z,4.72
2018-12-01T11:48:18.890Z,4.58
2018-12-01T11:50:45.505Z,5.90
2018-12-01T11:53:11.970Z,4.30
2018-12-01T11:55:38.550Z,4.70
2018-12-01T11:58:05.048Z,4.37
2018-12-01T12:00:31.558Z,4.30
2018-12-01T12:02:58.145Z,3.98
2018-12-01T12:05:24.665Z,3.65
2018-12-01T12:08:02.708Z,4.83
2018-12-01T12:10:29.321Z,4.97
2018-12-01T12:12:55.845Z,5.03
2018-12-01T12:15:22.996Z,3.77
2018-12-01T12:17:52.220Z,5.17
2018-12-01T12:20:18.693Z,3.75
2018-12-01T12:22:45.271Z,3.30
2018-12-01T12:25:11.753Z,3.60
2018-12-01T12:27:38.325Z,3.77
2018-12-01T12:30:13.668Z,4.00
2018-12-01T12:32:40.333Z,3.50
2018-12-01T12:35:08.007Z,4.70
2018-12-01T12:37:34.489Z,4.22
2018-12-01T12:40:01.001Z,4.87
2018-12-01T12:42:27.469Z,3.83
2018-12-01T12:44:53.965Z,3.17
2018-12-01T12:47:20.425Z,4.03
2018-12-01T12:49:46.957Z,3.98
2018-12-01T12:52:13.481Z,3.37
2018-12-01T12:54:40.007Z,4.50
2018-12-01T12:57:06.560Z,4.08
2018-12-01T12:59:33.081Z,3.60
2018-12-01T13:01:59.629Z,3.33
2018-12-01T13:04:26.149Z,3.17
2018-12-01T13:06:52.701Z,4.03
2018-12-01T13:09:19.216Z,4.28
2018-12-01T13:11:45.685Z,3.92
2018-12-01T13:14:12.168Z,4.45
2018-12-01T13:16:38.637Z,3.60
2018-12-01T13:19:05.187Z,3.90
2018-12-01T13:21:31.701Z,3.60
2018-12-01T13:23:58.249Z,3.10
2018-12-01T13:26:24.776Z,4.08
2018-12-01T13:28:51.321Z,4.75
2018-12-01T13:31:17.844Z,4.28
2018-12-01T13:33:44.649Z,3.55
2018-12-01T13:36:11.109Z,4.83
2018-12-01T13:38:37.666Z,4.25
2018-12-01T13:41:04.321Z,3.37
2018-12-01T13:43:30.829Z,3.40
2018-12-01T13:45:57.341Z,3.35
2018-12-01T13:48:23.837Z,3.55
2018-12-01T13:50:50.312Z,3.98
2018-12-01T13:53:16.881Z,5.08
2018-12-01T13:55:43.442Z,3.45
2018-12-01T13:58:09.949Z,3.65
2018-12-01T14:00:36.946Z,3.30
2018-12-01T14:03:03.780Z,3.42
2018-12-01T14:05:30.240Z,3.50
2018-12-01T14:07:56.790Z,3.05
2018-12-01T14:10:24.403Z,3.83
2018-12-01T14:12:53.281Z,3.35
2018-12-01T14:15:20.842Z,3.62
2018-12-01T14:17:47.613Z,3.62
2018-12-01T14:20:14.711Z,4.55
2018-12-01T14:22:41.793Z,3.05
2018-12-01T14:25:09.329Z,3.00
2018-12-01T14:27:36.081Z,3.67
2018-12-01T14:30:04.561Z,4.08
2018-12-01T14:32:31.036Z,3.45
2018-12-01T14:34:57.613Z,3.62
2018-12-01T14:37:24.097Z,3.52
2018-12-01T14:39:50.556Z,3.77
2018-12-01T14:42:17.081Z,2.90
2018-12-01T14:44:43.629Z,3.37
2018-12-01T14:47:10.133Z,2.83
2018-12-01T14:49:36.591Z,3.65
2018-12-01T14:52:03.125Z,4.28
2018-12-01T14:54:29.665Z,2.98
2018-12-01T14:56:56.173Z,2.92
2018-12-01T14:59:22.649Z,3.12
2018-12-01T15:01:49.145Z,3.27
2018-12-01T15:04:15.709Z,3.10
2018-12-01T15:06:42.209Z,3.27
2018-12-01T15:09:08.686Z,3.58
2018-12-01T15:11:35.461Z,2.55
2018-12-01T15:14:01.955Z,3.70
2018-12-01T15:16:28.448Z,2.60
2018-12-01T15:18:54.885Z,3.85
2018-12-01T15:21:21.349Z,4.20
2018-12-01T15:23:47.853Z,2.90
2018-12-01T15:26:14.321Z,3.47
2018-12-01T15:28:40.825Z,2.92
2018-12-01T15:31:07.393Z,3.47
2018-12-01T15:33:33.905Z,3.08
2018-12-01T15:36:00.487Z,2.37
2018-12-01T15:38:26.973Z,2.98
2018-12-01T15:40:53.533Z,3.75
2018-12-01T15:43:20.043Z,3.65
2018-12-01T15:45:46.593Z,2.83
2018-12-01T15:48:13.125Z,3.42
2018-12-01T15:50:39.917Z,2.83
2018-12-01T15:53:09.207Z,3.00
2018-12-01T15:55:35.705Z,3.58
2018-12-01T15:58:01.739Z,2.72
2018-12-01T16:00:28.277Z,3.15
2018-12-01T16:02:54.788Z,3.52
2018-12-01T16:05:22.704Z,2.60
2018-12-01T16:07:49.336Z,2.83
2018-12-01T16:10:17.821Z,3.80
2018-12-01T16:12:45.556Z,3.52
2018-12-01T16:15:21.236Z,2.75
2018-12-01T16:17:47.216Z,2.55
2018-12-01T16:20:14.020Z,2.67
2018-12-01T16:22:40.521Z,3.40
2018-12-01T16:25:07.468Z,2.85
2018-12-01T16:27:33.949Z,2.50
2018-12-01T16:29:59.992Z,2.60
2018-12-01T16:32:26.521Z,3.30
2018-12-01T16:34:53.033Z,3.17
2018-12-01T16:37:19.015Z,5.08
2018-12-01T16:39:45.493Z,3.60
2018-12-01T16:42:12.060Z,3.00
2018-12-01T16:44:38.574Z,2.95
2018-12-01T16:47:05.282Z,2.60
2018-12-01T16:49:31.248Z,3.40
2018-12-01T16:51:57.809Z,2.52
2018-12-01T16:54:24.445Z,2.92
2018-12-01T16:56:50.957Z,2.35
2018-12-01T16:59:17.464Z,2.77
2018-12-01T17:01:44.021Z,2.70
2018-12-01T17:04:10.565Z,2.40
2018-12-01T17:06:37.089Z,3.47
2018-12-01T17:09:05.608Z,2.27
2018-12-01T17:11:32.130Z,3.15
2018-12-01T17:13:58.637Z,3.10
2018-12-01T17:16:25.204Z,2.75
2018-12-01T17:18:51.718Z,2.55
2018-12-01T17:21:18.263Z,2.40
2018-12-01T17:23:44.755Z,2.87
2018-12-01T17:26:11.319Z,2.95
2018-12-01T17:28:37.829Z,2.77
2018-12-01T17:31:04.519Z,2.20
2018-12-01T17:33:31.025Z,3.00
2018-12-01T17:35:57.552Z,2.75
2018-12-01T17:38:24.130Z,2.50
2018-12-01T17:41:00.216Z,3.17
2018-12-01T17:43:30.725Z,2.52
2018-12-01T17:45:57.189Z,2.50
2018-12-01T17:48:23.678Z,2.72
2018-12-01T17:50:50.200Z,2.62
2018-12-01T17:53:16.729Z,2.27
2018-12-01T17:55:43.217Z,2.72
2018-12-01T17:58:09.829Z,2.83
2018-12-01T18:00:35.945Z,2.40
2018-12-01T18:03:02.477Z,2.90
2018-12-01T18:05:34.850Z,2.50
2018-12-01T18:08:01.595Z,2.02
2018-12-01T18:10:28.087Z,2.30
2018-12-01T18:12:54.529Z,3.40
2018-12-01T18:15:21.042Z,2.00
2018-12-01T18:17:47.609Z,2.30
2018-12-01T18:20:14.504Z,2.40
2018-12-01T18:22:41.125Z,2.15
2018-12-01T18:25:07.556Z,2.62
2018-12-01T18:27:34.049Z,2.27
2018-12-01T18:30:00.610Z,2.30
2018-12-01T18:32:27.119Z,2.30
2018-12-01T18:34:53.160Z,2.17
2018-12-01T18:37:19.689Z,2.40
2018-12-01T18:39:46.181Z,3.35
2018-12-01T18:42:12.642Z,2.25
2018-12-01T18:44:39.157Z,2.12
2018-12-01T18:47:05.705Z,2.75
2018-12-01T18:49:32.253Z,2.30
2018-12-01T18:51:58.748Z,2.40
2018-12-01T18:54:25.320Z,2.33
2018-12-01T18:56:51.825Z,2.00
2018-12-01T18:59:18.292Z,2.45
2018-12-01T19:01:46.477Z,2.80
2018-12-01T19:04:12.984Z,1.87
2018-12-01T19:06:39.500Z,2.45
2018-12-01T19:09:06.594Z,2.45
2018-12-01T19:11:33.080Z,2.20
2018-12-01T19:13:59.561Z,2.33
2018-12-01T19:16:26.057Z,2.75
2018-12-01T19:18:52.609Z,2.52
2018-12-01T19:21:19.122Z,2.42
2018-12-01T19:23:45.577Z,2.27
2018-12-01T19:26:12.085Z,1.90
2018-12-01T19:28:38.554Z,2.30
2018-12-01T19:31:05.199Z,2.15
2018-12-01T19:33:31.717Z,2.87
2018-12-01T19:35:58.225Z,2.25
2018-12-01T19:38:25.861Z,2.30
2018-12-01T19:40:52.805Z,2.02
2018-12-01T19:43:19.301Z,1.67
2018-12-01T19:45:45.805Z,2.30
2018-12-01T19:48:12.333Z,2.30
2018-12-01T19:50:39.665Z,2.02
2018-12-01T19:53:09.441Z,2.30
2018-12-01T19:55:35.994Z,2.35
2018-12-01T19:58:07.941Z,2.20
2018-12-01T20:00:34.458Z,2.27
2018-12-01T20:03:02.241Z,2.10
2018-12-01T20:05:28.901Z,1.80
2018-12-01T20:07:55.369Z,2.20
2018-12-01T20:10:28.729Z,1.90
2018-12-01T20:12:56.986Z,2.00
2018-12-01T20:15:23.843Z,2.10
2018-12-01T20:17:50.304Z,1.87
2018-12-01T20:20:16.777Z,2.22
2018-12-01T20:22:43.278Z,2.12
2018-12-01T20:25:11.116Z,2.50
2018-12-01T20:27:37.579Z,1.92
2018-12-01T20:30:21.249Z,2.30
2018-12-01T20:32:47.849Z,1.70
2018-12-01T20:35:23.794Z,2.02
2018-12-01T20:37:57.657Z,2.15
2018-12-01T20:40:24.177Z,2.58
2018-12-01T20:42:50.689Z,2.22
2018-12-01T20:45:17.265Z,2.67
2018-12-01T20:47:43.765Z,1.87
2018-12-01T20:50:12.707Z,1.92
2018-12-01T20:52:39.181Z,2.42
2018-12-01T20:55:14.709Z,1.85
2018-12-01T20:57:42.012Z,1.60
2018-12-01T21:00:10.112Z,2.00
2018-12-01T21:02:36.612Z,1.80
2018-12-01T21:05:06.045Z,2.00
2018-12-01T21:07:32.526Z,1.98
2018-12-01T21:09:59.085Z,1.72
2018-12-01T21:12:25.589Z,2.00
2018-12-01T21:14:52.049Z,2.08
2018-12-01T21:17:18.557Z,2.12
2018-12-01T21:19:45.123Z,1.70
2018-12-01T21:22:11.630Z,2.02
2018-12-01T21:24:38.163Z,2.33
2018-12-01T21:27:04.750Z,1.90
2018-12-01T21:29:31.274Z,2.95
2018-12-01T21:31:57.805Z,1.92
2018-12-01T21:34:24.309Z,2.12
2018-12-01T21:36:50.892Z,1.62
2018-12-01T21:39:17.373Z,2.00
2018-12-01T21:41:43.954Z,1.98
2018-12-01T21:44:10.442Z,3.83
2018-12-01T21:46:36.905Z,2.00
2018-12-01T21:49:03.655Z,1.70
2018-12-01T21:51:30.185Z,2.25
2018-12-01T21:53:56.693Z,1.72
2018-12-01T21:56:23.245Z,2.15
2018-12-01T21:58:49.768Z,1.62
2018-12-01T22:01:16.313Z,1.87
2018-12-01T22:03:42.838Z,2.92
2018-12-01T22:06:09.389Z,1.65
2018-12-01T22:08:36.569Z,3.50
2018-12-01T22:11:03.136Z,1.77
2018-12-01T22:13:29.609Z,1.75
2018-12-01T22:15:56.144Z,1.85
2018-12-01T22:18:23.206Z,2.67
2018-12-01T22:20:49.725Z,1.65
2018-12-01T22:23:16.237Z,2.00
2018-12-01T22:25:42.793Z,1.70
2018-12-01T22:28:10.593Z,1.72
2018-12-01T22:30:37.093Z,2.08
2018-12-01T22:33:05.812Z,1.70
2018-12-01T22:35:32.310Z,1.70
2018-12-01T22:37:58.837Z,1.87
2018-12-01T22:47:16.525Z,2.05
2018-12-01T22:49:43.042Z,1.77
2018-12-01T22:52:09.583Z,2.15
2018-12-01T22:54:36.101Z,1.50
2018-12-01T22:57:02.669Z,1.92
2018-12-01T22:59:29.169Z,1.87
2018-12-01T23:01:55.762Z,2.10
2018-12-01T23:04:22.245Z,2.35
2018-12-01T23:06:48.800Z,1.67
2018-12-01T23:09:15.321Z,1.70
2018-12-01T23:11:41.873Z,1.50
2018-12-01T23:14:08.378Z,2.77
2018-12-01T23:16:34.837Z,2.08
2018-12-01T23:19:01.345Z,2.67
2018-12-01T23:21:27.841Z,2.00
2018-12-01T23:23:54.321Z,2.08
2018-12-01T23:26:20.864Z,1.82
2018-12-01T23:28:47.417Z,1.75
2018-12-01T23:31:13.945Z,1.80
2018-12-01T23:33:40.465Z,2.02
2018-12-01T23:36:06.997Z,1.82
2018-12-01T23:38:33.545Z,1.57
2018-12-01T23:41:00.065Z,1.92
2018-12-01T23:43:26.624Z,1.47
2018-12-01T23:45:53.141Z,1.50
2018-12-01T23:48:19.705Z,2.17
2018-12-01T23:50:50.229Z,1.62
2018-12-01T23:53:17.013Z,1.70
2018-12-01T23:55:43.469Z,2.35
2018-12-01T23:58:10.017Z,1.67
